sensor_id;sensor_type;location;lat;lon;timestamp;P1;durP1;ratioP1;P2;durP2;ratioP2
37529;SDS011;23374;52.758;6.872;2023-10-19T00:01:50;13.20;;;7.37;;
37529;SDS011;23374;52.758;6.872;2023-10-19T00:04:10;11.43;;;6.10;;
37529;SDS011;23374;52.758;6.872;2023-10-19T00:06:31;10.83;;;6.63;;
37529;SDS011;23374;52.758;6.872;2023-10-19T00:08:52;14.43;;;6.53;;
37529;SDS011;23374;52.758;6.872;2023-10-19T00:11:13;15.27;;;7.30;;
37529;SDS011;23374;52.758;6.872;2023-10-19T00:13:41;11.37;;;5.47;;
37529;SDS011;23374;52.758;6.872;2023-10-19T00:16:07;11.73;;;6.23;;
37529;SDS011;23374;52.758;6.872;2023-10-19T00:18:35;11.80;;;6.83;;
37529;SDS011;23374;52.758;6.872;2023-10-19T00:20:56;7.70;;;4.30;;
37529;SDS011;23374;52.758;6.872;2023-10-19T00:23:25;12.40;;;8.00;;
37529;SDS011;23374;52.758;6.872;2023-10-19T00:25:48;11.87;;;6.00;;
37529;SDS011;23374;52.758;6.872;2023-10-19T00:28:11;12.00;;;5.97;;
37529;SDS011;23374;52.758;6.872;2023-10-19T00:30:35;9.47;;;5.53;;
37529;SDS011;23374;52.758;6.872;2023-10-19T00:32:55;10.43;;;5.80;;
37529;SDS011;23374;52.758;6.872;2023-10-19T00:35:16;10.20;;;5.43;;
37529;SDS011;23374;52.758;6.872;2023-10-19T00:37:55;8.87;;;5.57;;
37529;SDS011;23374;52.758;6.872;2023-10-19T00:40:37;9.83;;;4.53;;
37529;SDS011;23374;52.758;6.872;2023-10-19T00:43:03;16.77;;;8.00;;
37529;SDS011;23374;52.758;6.872;2023-10-19T00:45:29;13.07;;;6.60;;
37529;SDS011;23374;52.758;6.872;2023-10-19T00:47:51;13.17;;;6.73;;
37529;SDS011;23374;52.758;6.872;2023-10-19T00:50:13;12.43;;;5.73;;
37529;SDS011;23374;52.758;6.872;2023-10-19T00:52:42;14.97;;;8.07;;
37529;SDS011;23374;52.758;6.872;2023-10-19T00:55:10;7.53;;;4.90;;
37529;SDS011;23374;52.758;6.872;2023-10-19T00:57:32;9.60;;;5.27;;
37529;SDS011;23374;52.758;6.872;2023-10-19T00:59:54;14.87;;;8.57;;
37529;SDS011;23374;52.758;6.872;2023-10-19T01:02:20;14.40;;;6.50;;
37529;SDS011;23374;52.758;6.872;2023-10-19T01:04:49;6.40;;;3.80;;
37529;SDS011;23374;52.758;6.872;2023-10-19T01:07:19;10.40;;;6.40;;
37529;SDS011;23374;52.758;6.872;2023-10-19T01:09:46;14.10;;;7.70;;
37529;SDS011;23374;52.758;6.872;2023-10-19T01:12:07;10.40;;;6.00;;
37529;SDS011;23374;52.758;6.872;2023-10-19T01:17:59;14.00;;;7.67;;
37529;SDS011;23374;52.758;6.872;2023-10-19T01:20:22;12.00;;;6.73;;
37529;SDS011;23374;52.758;6.872;2023-10-19T01:23:07;15.00;;;8.53;;
37529;SDS011;23374;52.758;6.872;2023-10-19T01:25:50;15.53;;;8.20;;
37529;SDS011;23374;52.758;6.872;2023-10-19T01:28:32;12.83;;;6.30;;
37529;SDS011;23374;52.758;6.872;2023-10-19T01:31:20;17.50;;;8.80;;
37529;SDS011;23374;52.758;6.872;2023-10-19T01:33:58;13.70;;;7.53;;
37529;SDS011;23374;52.758;6.872;2023-10-19T01:36:26;15.90;;;7.20;;
37529;SDS011;23374;52.758;6.872;2023-10-19T01:38:47;13.97;;;8.30;;
37529;SDS011;23374;52.758;6.872;2023-10-19T01:41:09;6.43;;;4.00;;
37529;SDS011;23374;52.758;6.872;2023-10-19T01:43:42;15.17;;;8.67;;
37529;SDS011;23374;52.758;6.872;2023-10-19T01:46:03;14.77;;;6.97;;
37529;SDS011;23374;52.758;6.872;2023-10-19T01:48:25;16.30;;;8.33;;
37529;SDS011;23374;52.758;6.872;2023-10-19T01:50:55;9.80;;;5.63;;
37529;SDS011;23374;52.758;6.872;2023-10-19T01:53:17;11.97;;;6.67;;
37529;SDS011;23374;52.758;6.872;2023-10-19T01:55:37;11.50;;;6.27;;
37529;SDS011;23374;52.758;6.872;2023-10-19T01:57:58;16.37;;;8.63;;
37529;SDS011;23374;52.758;6.872;2023-10-19T02:00:19;13.73;;;8.17;;
37529;SDS011;23374;52.758;6.872;2023-10-19T02:02:42;14.63;;;8.13;;
37529;SDS011;23374;52.758;6.872;2023-10-19T02:05:03;13.20;;;8.40;;
37529;SDS011;23374;52.758;6.872;2023-10-19T02:07:28;22.37;;;13.25;;
37529;SDS011;23374;52.758;6.872;2023-10-19T02:09:49;13.17;;;7.73;;
37529;SDS011;23374;52.758;6.872;2023-10-19T02:12:09;13.43;;;7.07;;
37529;SDS011;23374;52.758;6.872;2023-10-19T02:14:29;6.57;;;3.83;;
37529;SDS011;23374;52.758;6.872;2023-10-19T02:16:54;12.37;;;7.27;;
37529;SDS011;23374;52.758;6.872;2023-10-19T02:19:20;13.30;;;7.63;;
37529;SDS011;23374;52.758;6.872;2023-10-19T02:21:41;11.57;;;7.33;;
37529;SDS011;23374;52.758;6.872;2023-10-19T02:24:03;9.43;;;5.43;;
37529;SDS011;23374;52.758;6.872;2023-10-19T02:26:27;9.43;;;5.07;;
37529;SDS011;23374;52.758;6.872;2023-10-19T02:28:47;10.33;;;6.73;;
37529;SDS011;23374;52.758;6.872;2023-10-19T02:31:10;12.70;;;7.13;;
37529;SDS011;23374;52.758;6.872;2023-10-19T02:33:34;10.73;;;5.27;;
37529;SDS011;23374;52.758;6.872;2023-10-19T02:35:54;11.30;;;6.90;;
37529;SDS011;23374;52.758;6.872;2023-10-19T02:38:16;15.43;;;7.10;;
37529;SDS011;23374;52.758;6.872;2023-10-19T02:40:37;11.73;;;7.13;;
37529;SDS011;23374;52.758;6.872;2023-10-19T02:42:59;8.83;;;5.37;;
37529;SDS011;23374;52.758;6.872;2023-10-19T02:45:23;10.20;;;6.23;;
37529;SDS011;23374;52.758;6.872;2023-10-19T02:47:44;11.40;;;6.90;;
37529;SDS011;23374;52.758;6.872;2023-10-19T02:50:06;8.53;;;5.53;;
37529;SDS011;23374;52.758;6.872;2023-10-19T02:52:31;10.47;;;6.43;;
37529;SDS011;23374;52.758;6.872;2023-10-19T02:54:52;10.77;;;6.43;;
37529;SDS011;23374;52.758;6.872;2023-10-19T02:57:16;10.17;;;5.80;;
37529;SDS011;23374;52.758;6.872;2023-10-19T02:59:37;5.30;;;3.07;;
37529;SDS011;23374;52.758;6.872;2023-10-19T03:02:00;10.07;;;6.30;;
37529;SDS011;23374;52.758;6.872;2023-10-19T03:04:21;9.20;;;5.30;;
37529;SDS011;23374;52.758;6.872;2023-10-19T03:06:41;10.27;;;5.80;;
37529;SDS011;23374;52.758;6.872;2023-10-19T03:09:06;10.87;;;5.93;;
37529;SDS011;23374;52.758;6.872;2023-10-19T03:11:48;10.77;;;6.13;;
37529;SDS011;23374;52.758;6.872;2023-10-19T03:14:13;12.30;;;7.27;;
37529;SDS011;23374;52.758;6.872;2023-10-19T03:16:35;12.83;;;6.87;;
37529;SDS011;23374;52.758;6.872;2023-10-19T03:18:56;11.43;;;6.47;;
37529;SDS011;23374;52.758;6.872;2023-10-19T03:21:17;11.40;;;6.40;;
37529;SDS011;23374;52.758;6.872;2023-10-19T03:23:39;5.03;;;3.60;;
37529;SDS011;23374;52.758;6.872;2023-10-19T03:26:47;9.37;;;6.20;;
37529;SDS011;23374;52.758;6.872;2023-10-19T03:29:10;10.73;;;6.33;;
37529;SDS011;23374;52.758;6.872;2023-10-19T03:31:34;5.57;;;3.50;;
37529;SDS011;23374;52.758;6.872;2023-10-19T03:34:02;12.33;;;6.73;;
37529;SDS011;23374;52.758;6.872;2023-10-19T03:36:26;3.73;;;2.30;;
37529;SDS011;23374;52.758;6.872;2023-10-19T03:38:46;13.10;;;6.90;;
37529;SDS011;23374;52.758;6.872;2023-10-19T03:41:07;14.00;;;7.97;;
37529;SDS011;23374;52.758;6.872;2023-10-19T03:43:28;12.90;;;7.07;;
37529;SDS011;23374;52.758;6.872;2023-10-19T03:45:49;14.53;;;7.23;;
37529;SDS011;23374;52.758;6.872;2023-10-19T03:48:12;9.63;;;5.33;;
37529;SDS011;23374;52.758;6.872;2023-10-19T03:50:34;10.00;;;6.13;;
37529;SDS011;23374;52.758;6.872;2023-10-19T03:52:56;9.57;;;6.40;;
37529;SDS011;23374;52.758;6.872;2023-10-19T03:55:16;14.20;;;8.03;;
37529;SDS011;23374;52.758;6.872;2023-10-19T03:57:43;12.43;;;7.93;;
37529;SDS011;23374;52.758;6.872;2023-10-19T04:00:07;10.80;;;5.63;;
37529;SDS011;23374;52.758;6.872;2023-10-19T04:02:36;9.87;;;4.90;;
37529;SDS011;23374;52.758;6.872;2023-10-19T04:04:58;8.70;;;4.83;;
37529;SDS011;23374;52.758;6.872;2023-10-19T04:07:21;11.90;;;7.40;;
37529;SDS011;23374;52.758;6.872;2023-10-19T04:09:41;10.47;;;6.60;;
37529;SDS011;23374;52.758;6.872;2023-10-19T04:12:20;7.43;;;4.20;;
37529;SDS011;23374;52.758;6.872;2023-10-19T04:14:42;10.90;;;5.83;;
37529;SDS011;23374;52.758;6.872;2023-10-19T04:17:02;10.70;;;6.73;;
37529;SDS011;23374;52.758;6.872;2023-10-19T04:19:23;10.67;;;6.80;;
37529;SDS011;23374;52.758;6.872;2023-10-19T04:21:43;10.97;;;6.07;;
37529;SDS011;23374;52.758;6.872;2023-10-19T04:24:06;10.97;;;6.50;;
37529;SDS011;23374;52.758;6.872;2023-10-19T04:26:52;9.27;;;5.10;;
37529;SDS011;23374;52.758;6.872;2023-10-19T04:29:12;9.63;;;5.20;;
37529;SDS011;23374;52.758;6.872;2023-10-19T04:31:38;9.57;;;5.70;;
37529;SDS011;23374;52.758;6.872;2023-10-19T04:34:09;11.63;;;6.03;;
37529;SDS011;23374;52.758;6.872;2023-10-19T04:36:30;9.47;;;5.50;;
37529;SDS011;23374;52.758;6.872;2023-10-19T04:38:51;7.93;;;4.27;;
37529;SDS011;23374;52.758;6.872;2023-10-19T04:41:12;9.03;;;6.13;;
37529;SDS011;23374;52.758;6.872;2023-10-19T04:43:33;9.73;;;5.90;;
37529;SDS011;23374;52.758;6.872;2023-10-19T04:45:59;8.43;;;5.03;;
37529;SDS011;23374;52.758;6.872;2023-10-19T04:48:20;7.67;;;4.53;;
37529;SDS011;23374;52.758;6.872;2023-10-19T04:50:41;8.27;;;4.90;;
37529;SDS011;23374;52.758;6.872;2023-10-19T04:53:01;7.27;;;5.17;;
37529;SDS011;23374;52.758;6.872;2023-10-19T04:55:22;10.80;;;5.90;;
37529;SDS011;23374;52.758;6.872;2023-10-19T04:57:42;9.50;;;6.60;;
37529;SDS011;23374;52.758;6.872;2023-10-19T05:00:03;9.77;;;5.50;;
37529;SDS011;23374;52.758;6.872;2023-10-19T05:02:25;8.50;;;6.00;;
37529;SDS011;23374;52.758;6.872;2023-10-19T05:04:46;8.70;;;5.70;;
37529;SDS011;23374;52.758;6.872;2023-10-19T05:07:07;8.03;;;4.60;;
37529;SDS011;23374;52.758;6.872;2023-10-19T05:09:31;7.70;;;5.10;;
37529;SDS011;23374;52.758;6.872;2023-10-19T05:11:52;6.77;;;4.20;;
37529;SDS011;23374;52.758;6.872;2023-10-19T05:14:13;8.20;;;5.37;;
37529;SDS011;23374;52.758;6.872;2023-10-19T05:16:33;5.43;;;4.13;;
37529;SDS011;23374;52.758;6.872;2023-10-19T05:18:54;5.40;;;3.83;;
37529;SDS011;23374;52.758;6.872;2023-10-19T05:21:14;8.63;;;4.93;;
37529;SDS011;23374;52.758;6.872;2023-10-19T05:23:35;7.13;;;4.70;;
37529;SDS011;23374;52.758;6.872;2023-10-19T05:26:57;7.67;;;4.70;;
37529;SDS011;23374;52.758;6.872;2023-10-19T05:29:17;9.40;;;5.17;;
37529;SDS011;23374;52.758;6.872;2023-10-19T05:31:38;6.57;;;4.63;;
37529;SDS011;23374;52.758;6.872;2023-10-19T05:33:59;7.70;;;5.10;;
37529;SDS011;23374;52.758;6.872;2023-10-19T05:36:19;9.83;;;5.70;;
37529;SDS011;23374;52.758;6.872;2023-10-19T05:38:39;7.37;;;5.27;;
37529;SDS011;23374;52.758;6.872;2023-10-19T05:41:00;10.77;;;5.87;;
37529;SDS011;23374;52.758;6.872;2023-10-19T05:43:20;6.70;;;4.80;;
37529;SDS011;23374;52.758;6.872;2023-10-19T05:45:44;7.53;;;5.30;;
37529;SDS011;23374;52.758;6.872;2023-10-19T05:48:05;8.23;;;5.20;;
37529;SDS011;23374;52.758;6.872;2023-10-19T05:50:26;7.77;;;6.00;;
37529;SDS011;23374;52.758;6.872;2023-10-19T05:52:48;7.80;;;5.27;;
37529;SDS011;23374;52.758;6.872;2023-10-19T05:55:09;9.67;;;5.93;;
37529;SDS011;23374;52.758;6.872;2023-10-19T05:57:32;9.23;;;5.80;;
37529;SDS011;23374;52.758;6.872;2023-10-19T05:59:53;10.17;;;6.23;;
37529;SDS011;23374;52.758;6.872;2023-10-19T06:02:13;10.57;;;6.23;;
37529;SDS011;23374;52.758;6.872;2023-10-19T06:04:34;10.10;;;6.00;;
37529;SDS011;23374;52.758;6.872;2023-10-19T06:06:54;8.10;;;5.00;;
37529;SDS011;23374;52.758;6.872;2023-10-19T06:09:16;8.37;;;5.00;;
37529;SDS011;23374;52.758;6.872;2023-10-19T06:11:37;6.13;;;3.93;;
37529;SDS011;23374;52.758;6.872;2023-10-19T06:14:02;5.70;;;3.80;;
37529;SDS011;23374;52.758;6.872;2023-10-19T06:16:26;7.27;;;5.00;;
37529;SDS011;23374;52.758;6.872;2023-10-19T06:18:47;7.37;;;4.70;;
37529;SDS011;23374;52.758;6.872;2023-10-19T06:21:08;8.97;;;5.67;;
37529;SDS011;23374;52.758;6.872;2023-10-19T06:23:29;9.70;;;5.27;;
37529;SDS011;23374;52.758;6.872;2023-10-19T06:25:51;7.10;;;4.97;;
37529;SDS011;23374;52.758;6.872;2023-10-19T06:28:11;7.37;;;4.67;;
37529;SDS011;23374;52.758;6.872;2023-10-19T06:30:32;8.23;;;5.10;;
37529;SDS011;23374;52.758;6.872;2023-10-19T06:32:57;7.50;;;5.20;;
37529;SDS011;23374;52.758;6.872;2023-10-19T06:35:20;7.37;;;4.27;;
37529;SDS011;23374;52.758;6.872;2023-10-19T06:37:42;8.10;;;5.57;;
37529;SDS011;23374;52.758;6.872;2023-10-19T06:40:02;8.50;;;5.60;;
37529;SDS011;23374;52.758;6.872;2023-10-19T06:42:25;8.33;;;6.03;;
37529;SDS011;23374;52.758;6.872;2023-10-19T06:44:45;8.23;;;5.37;;
37529;SDS011;23374;52.758;6.872;2023-10-19T06:47:06;9.07;;;4.93;;
37529;SDS011;23374;52.758;6.872;2023-10-19T06:49:26;8.60;;;5.43;;
37529;SDS011;23374;52.758;6.872;2023-10-19T06:51:49;8.57;;;5.43;;
37529;SDS011;23374;52.758;6.872;2023-10-19T06:54:09;8.20;;;5.30;;
37529;SDS011;23374;52.758;6.872;2023-10-19T06:56:29;9.20;;;6.27;;
37529;SDS011;23374;52.758;6.872;2023-10-19T06:58:50;8.00;;;5.63;;
37529;SDS011;23374;52.758;6.872;2023-10-19T07:01:10;8.50;;;5.00;;
37529;SDS011;23374;52.758;6.872;2023-10-19T07:03:33;8.63;;;5.43;;
37529;SDS011;23374;52.758;6.872;2023-10-19T07:05:53;10.30;;;5.53;;
37529;SDS011;23374;52.758;6.872;2023-10-19T07:08:14;8.67;;;5.90;;
37529;SDS011;23374;52.758;6.872;2023-10-19T07:10:34;7.37;;;5.40;;
37529;SDS011;23374;52.758;6.872;2023-10-19T07:12:55;7.07;;;3.97;;
37529;SDS011;23374;52.758;6.872;2023-10-19T07:15:17;8.43;;;5.40;;
37529;SDS011;23374;52.758;6.872;2023-10-19T07:17:42;7.47;;;4.83;;
37529;SDS011;23374;52.758;6.872;2023-10-19T07:20:05;9.00;;;5.47;;
37529;SDS011;23374;52.758;6.872;2023-10-19T07:22:27;9.27;;;5.60;;
37529;SDS011;23374;52.758;6.872;2023-10-19T07:24:48;9.73;;;5.67;;
37529;SDS011;23374;52.758;6.872;2023-10-19T07:27:08;8.97;;;6.20;;
37529;SDS011;23374;52.758;6.872;2023-10-19T07:29:38;11.80;;;6.47;;
37529;SDS011;23374;52.758;6.872;2023-10-19T07:32:03;11.00;;;7.17;;
37529;SDS011;23374;52.758;6.872;2023-10-19T07:34:24;9.47;;;5.97;;
37529;SDS011;23374;52.758;6.872;2023-10-19T07:36:47;10.00;;;5.73;;
37529;SDS011;23374;52.758;6.872;2023-10-19T07:39:09;9.03;;;5.73;;
37529;SDS011;23374;52.758;6.872;2023-10-19T07:41:33;9.90;;;6.10;;
37529;SDS011;23374;52.758;6.872;2023-10-19T07:43:55;10.83;;;6.27;;
37529;SDS011;23374;52.758;6.872;2023-10-19T07:46:16;11.47;;;6.33;;
37529;SDS011;23374;52.758;6.872;2023-10-19T07:48:36;13.00;;;6.63;;
37529;SDS011;23374;52.758;6.872;2023-10-19T07:50:58;9.80;;;6.17;;
37529;SDS011;23374;52.758;6.872;2023-10-19T07:53:18;12.70;;;6.83;;
37529;SDS011;23374;52.758;6.872;2023-10-19T07:55:39;16.77;;;6.97;;
37529;SDS011;23374;52.758;6.872;2023-10-19T07:58:00;11.60;;;6.33;;
37529;SDS011;23374;52.758;6.872;2023-10-19T08:00:22;12.30;;;7.17;;
37529;SDS011;23374;52.758;6.872;2023-10-19T08:02:43;13.60;;;7.87;;
37529;SDS011;23374;52.758;6.872;2023-10-19T08:05:08;13.50;;;6.67;;
37529;SDS011;23374;52.758;6.872;2023-10-19T08:07:31;11.43;;;6.43;;
37529;SDS011;23374;52.758;6.872;2023-10-19T08:09:51;15.30;;;8.03;;
37529;SDS011;23374;52.758;6.872;2023-10-19T08:12:12;11.60;;;6.43;;
37529;SDS011;23374;52.758;6.872;2023-10-19T08:14:33;14.57;;;7.50;;
37529;SDS011;23374;52.758;6.872;2023-10-19T08:16:54;15.30;;;8.30;;
37529;SDS011;23374;52.758;6.872;2023-10-19T08:19:16;11.83;;;6.33;;
37529;SDS011;23374;52.758;6.872;2023-10-19T08:21:38;15.10;;;8.50;;
37529;SDS011;23374;52.758;6.872;2023-10-19T08:23:58;15.00;;;8.27;;
37529;SDS011;23374;52.758;6.872;2023-10-19T08:26:18;12.63;;;8.00;;
37529;SDS011;23374;52.758;6.872;2023-10-19T08:28:41;13.23;;;8.27;;
37529;SDS011;23374;52.758;6.872;2023-10-19T08:31:01;13.93;;;8.50;;
37529;SDS011;23374;52.758;6.872;2023-10-19T08:33:25;11.93;;;7.57;;
37529;SDS011;23374;52.758;6.872;2023-10-19T08:35:46;17.83;;;7.83;;
37529;SDS011;23374;52.758;6.872;2023-10-19T08:38:07;14.23;;;8.27;;
37529;SDS011;23374;52.758;6.872;2023-10-19T08:40:30;17.60;;;9.50;;
37529;SDS011;23374;52.758;6.872;2023-10-19T08:42:51;13.83;;;8.20;;
37529;SDS011;23374;52.758;6.872;2023-10-19T08:45:13;14.97;;;8.00;;
37529;SDS011;23374;52.758;6.872;2023-10-19T08:47:36;16.63;;;9.63;;
37529;SDS011;23374;52.758;6.872;2023-10-19T08:50:00;17.37;;;9.70;;
37529;SDS011;23374;52.758;6.872;2023-10-19T08:52:20;21.17;;;9.87;;
37529;SDS011;23374;52.758;6.872;2023-10-19T08:54:46;16.97;;;9.47;;
37529;SDS011;23374;52.758;6.872;2023-10-19T08:57:08;16.07;;;9.20;;
37529;SDS011;23374;52.758;6.872;2023-10-19T08:59:29;17.57;;;9.73;;
37529;SDS011;23374;52.758;6.872;2023-10-19T09:01:50;19.33;;;10.27;;
37529;SDS011;23374;52.758;6.872;2023-10-19T09:04:11;17.87;;;9.83;;
37529;SDS011;23374;52.758;6.872;2023-10-19T09:06:36;17.67;;;10.00;;
37529;SDS011;23374;52.758;6.872;2023-10-19T09:09:04;16.87;;;8.83;;
37529;SDS011;23374;52.758;6.872;2023-10-19T09:11:24;18.33;;;8.83;;
37529;SDS011;23374;52.758;6.872;2023-10-19T09:13:49;19.83;;;9.20;;
37529;SDS011;23374;52.758;6.872;2023-10-19T09:16:11;18.33;;;10.03;;
37529;SDS011;23374;52.758;6.872;2023-10-19T09:18:32;17.17;;;9.70;;
37529;SDS011;23374;52.758;6.872;2023-10-19T09:20:52;18.03;;;10.50;;
37529;SDS011;23374;52.758;6.872;2023-10-19T09:23:16;17.17;;;10.10;;
37529;SDS011;23374;52.758;6.872;2023-10-19T09:25:36;20.50;;;10.27;;
37529;SDS011;23374;52.758;6.872;2023-10-19T09:27:59;14.50;;;8.47;;
37529;SDS011;23374;52.758;6.872;2023-10-19T09:30:22;20.10;;;11.17;;
37529;SDS011;23374;52.758;6.872;2023-10-19T09:32:46;18.70;;;10.37;;
37529;SDS011;23374;52.758;6.872;2023-10-19T09:35:07;18.87;;;10.50;;
37529;SDS011;23374;52.758;6.872;2023-10-19T09:37:32;21.50;;;10.90;;
37529;SDS011;23374;52.758;6.872;2023-10-19T09:39:54;18.33;;;10.27;;
37529;SDS011;23374;52.758;6.872;2023-10-19T09:42:16;19.77;;;9.97;;
37529;SDS011;23374;52.758;6.872;2023-10-19T09:44:44;19.77;;;10.30;;
37529;SDS011;23374;52.758;6.872;2023-10-19T09:47:53;17.63;;;9.17;;
37529;SDS011;23374;52.758;6.872;2023-10-19T09:50:14;18.43;;;9.90;;
37529;SDS011;23374;52.758;6.872;2023-10-19T09:52:35;21.30;;;10.33;;
37529;SDS011;23374;52.758;6.872;2023-10-19T09:54:59;20.57;;;10.70;;
37529;SDS011;23374;52.758;6.872;2023-10-19T09:57:37;18.53;;;9.97;;
37529;SDS011;23374;52.758;6.872;2023-10-19T10:00:07;19.93;;;10.20;;
37529;SDS011;23374;52.758;6.872;2023-10-19T10:02:31;16.50;;;10.17;;
37529;SDS011;23374;52.758;6.872;2023-10-19T10:04:52;18.77;;;9.13;;
37529;SDS011;23374;52.758;6.872;2023-10-19T10:07:13;17.27;;;9.73;;
37529;SDS011;23374;52.758;6.872;2023-10-19T10:09:40;21.50;;;10.97;;
37529;SDS011;23374;52.758;6.872;2023-10-19T10:12:21;23.23;;;9.90;;
37529;SDS011;23374;52.758;6.872;2023-10-19T10:15:04;15.57;;;8.83;;
37529;SDS011;23374;52.758;6.872;2023-10-19T10:17:28;15.50;;;8.83;;
37529;SDS011;23374;52.758;6.872;2023-10-19T10:19:56;14.73;;;8.87;;
37529;SDS011;23374;52.758;6.872;2023-10-19T10:25:52;14.40;;;8.70;;
37529;SDS011;23374;52.758;6.872;2023-10-19T10:28:14;18.17;;;9.83;;
37529;SDS011;23374;52.758;6.872;2023-10-19T10:30:35;15.30;;;9.13;;
37529;SDS011;23374;52.758;6.872;2023-10-19T10:32:55;15.40;;;9.03;;
37529;SDS011;23374;52.758;6.872;2023-10-19T10:38:17;16.63;;;9.67;;
37529;SDS011;23374;52.758;6.872;2023-10-19T10:40:48;18.40;;;9.60;;
37529;SDS011;23374;52.758;6.872;2023-10-19T10:43:09;17.23;;;8.40;;
37529;SDS011;23374;52.758;6.872;2023-10-19T10:45:31;16.23;;;9.70;;
37529;SDS011;23374;52.758;6.872;2023-10-19T10:47:51;16.33;;;9.87;;
37529;SDS011;23374;52.758;6.872;2023-10-19T10:50:19;16.53;;;9.83;;
37529;SDS011;23374;52.758;6.872;2023-10-19T10:52:40;19.57;;;11.07;;
37529;SDS011;23374;52.758;6.872;2023-10-19T10:55:11;18.67;;;10.30;;
37529;SDS011;23374;52.758;6.872;2023-10-19T10:57:33;16.37;;;9.37;;
37529;SDS011;23374;52.758;6.872;2023-10-19T11:00:11;17.03;;;9.93;;
37529;SDS011;23374;52.758;6.872;2023-10-19T11:02:37;17.73;;;10.10;;
37529;SDS011;23374;52.758;6.872;2023-10-19T11:05:02;16.83;;;9.70;;
37529;SDS011;23374;52.758;6.872;2023-10-19T11:07:23;14.47;;;8.70;;
37529;SDS011;23374;52.758;6.872;2023-10-19T11:09:47;14.63;;;8.83;;
37529;SDS011;23374;52.758;6.872;2023-10-19T11:12:11;17.70;;;9.07;;
37529;SDS011;23374;52.758;6.872;2023-10-19T11:14:33;17.43;;;9.70;;
37529;SDS011;23374;52.758;6.872;2023-10-19T11:16:54;17.53;;;9.40;;
37529;SDS011;23374;52.758;6.872;2023-10-19T11:19:40;15.80;;;9.53;;
37529;SDS011;23374;52.758;6.872;2023-10-19T11:22:00;13.37;;;8.50;;
37529;SDS011;23374;52.758;6.872;2023-10-19T11:24:28;13.97;;;8.37;;
37529;SDS011;23374;52.758;6.872;2023-10-19T11:26:53;15.50;;;9.00;;
37529;SDS011;23374;52.758;6.872;2023-10-19T11:29:16;15.70;;;8.67;;
37529;SDS011;23374;52.758;6.872;2023-10-19T11:31:37;16.67;;;9.33;;
37529;SDS011;23374;52.758;6.872;2023-10-19T11:33:57;18.73;;;10.30;;
37529;SDS011;23374;52.758;6.872;2023-10-19T11:36:21;17.47;;;9.40;;
37529;SDS011;23374;52.758;6.872;2023-10-19T11:38:45;16.63;;;9.30;;
37529;SDS011;23374;52.758;6.872;2023-10-19T11:41:06;21.47;;;10.53;;
37529;SDS011;23374;52.758;6.872;2023-10-19T11:43:27;15.60;;;8.57;;
37529;SDS011;23374;52.758;6.872;2023-10-19T11:45:48;19.43;;;10.83;;
37529;SDS011;23374;52.758;6.872;2023-10-19T11:48:09;18.67;;;9.83;;
37529;SDS011;23374;52.758;6.872;2023-10-19T11:50:30;14.33;;;8.80;;
37529;SDS011;23374;52.758;6.872;2023-10-19T11:52:52;19.70;;;10.47;;
37529;SDS011;23374;52.758;6.872;2023-10-19T11:55:13;18.80;;;10.23;;
37529;SDS011;23374;52.758;6.872;2023-10-19T11:57:34;18.13;;;11.37;;
37529;SDS011;23374;52.758;6.872;2023-10-19T11:59:56;16.40;;;10.13;;
37529;SDS011;23374;52.758;6.872;2023-10-19T12:02:20;17.73;;;10.57;;
37529;SDS011;23374;52.758;6.872;2023-10-19T12:04:40;10.83;;;6.90;;
37529;SDS011;23374;52.758;6.872;2023-10-19T12:07:04;20.10;;;10.77;;
37529;SDS011;23374;52.758;6.872;2023-10-19T12:09:28;22.23;;;10.20;;
37529;SDS011;23374;52.758;6.872;2023-10-19T12:11:50;16.53;;;10.37;;
37529;SDS011;23374;52.758;6.872;2023-10-19T12:14:13;17.80;;;10.20;;
37529;SDS011;23374;52.758;6.872;2023-10-19T12:16:35;13.93;;;8.27;;
37529;SDS011;23374;52.758;6.872;2023-10-19T12:18:55;16.13;;;9.80;;
37529;SDS011;23374;52.758;6.872;2023-10-19T12:21:16;18.40;;;9.27;;
37529;SDS011;23374;52.758;6.872;2023-10-19T12:23:42;18.70;;;10.07;;
37529;SDS011;23374;52.758;6.872;2023-10-19T12:26:03;16.47;;;9.63;;
37529;SDS011;23374;52.758;6.872;2023-10-19T12:28:28;16.87;;;9.07;;
37529;SDS011;23374;52.758;6.872;2023-10-19T12:30:48;19.20;;;10.87;;
37529;SDS011;23374;52.758;6.872;2023-10-19T12:33:09;21.27;;;11.63;;
37529;SDS011;23374;52.758;6.872;2023-10-19T12:35:32;16.00;;;9.67;;
37529;SDS011;23374;52.758;6.872;2023-10-19T12:38:11;16.90;;;9.83;;
37529;SDS011;23374;52.758;6.872;2023-10-19T12:40:35;17.20;;;9.93;;
37529;SDS011;23374;52.758;6.872;2023-10-19T12:42:58;17.87;;;9.93;;
37529;SDS011;23374;52.758;6.872;2023-10-19T12:45:24;19.27;;;10.33;;
37529;SDS011;23374;52.758;6.872;2023-10-19T12:47:48;18.80;;;10.43;;
37529;SDS011;23374;52.758;6.872;2023-10-19T12:50:08;17.63;;;10.13;;
37529;SDS011;23374;52.758;6.872;2023-10-19T12:52:29;21.10;;;10.63;;
37529;SDS011;23374;52.758;6.872;2023-10-19T12:54:52;24.30;;;10.70;;
37529;SDS011;23374;52.758;6.872;2023-10-19T12:57:18;18.80;;;9.13;;
37529;SDS011;23374;52.758;6.872;2023-10-19T12:59:39;19.87;;;9.93;;
37529;SDS011;23374;52.758;6.872;2023-10-19T13:02:04;19.57;;;10.17;;
37529;SDS011;23374;52.758;6.872;2023-10-19T13:04:27;22.17;;;10.20;;
37529;SDS011;23374;52.758;6.872;2023-10-19T13:06:51;22.93;;;10.77;;
37529;SDS011;23374;52.758;6.872;2023-10-19T13:09:11;22.23;;;11.00;;
37529;SDS011;23374;52.758;6.872;2023-10-19T13:11:34;18.87;;;10.43;;
37529;SDS011;23374;52.758;6.872;2023-10-19T13:13:54;22.13;;;10.53;;
37529;SDS011;23374;52.758;6.872;2023-10-19T13:16:15;21.93;;;11.87;;
37529;SDS011;23374;52.758;6.872;2023-10-19T13:18:36;18.47;;;10.93;;
37529;SDS011;23374;52.758;6.872;2023-10-19T13:20:56;20.40;;;10.63;;
37529;SDS011;23374;52.758;6.872;2023-10-19T13:23:16;17.30;;;8.93;;
37529;SDS011;23374;52.758;6.872;2023-10-19T13:25:41;20.87;;;10.90;;
37529;SDS011;23374;52.758;6.872;2023-10-19T13:28:10;20.13;;;10.50;;
37529;SDS011;23374;52.758;6.872;2023-10-19T13:30:35;17.53;;;9.67;;
37529;SDS011;23374;52.758;6.872;2023-10-19T13:32:57;18.97;;;10.83;;
37529;SDS011;23374;52.758;6.872;2023-10-19T13:35:17;19.17;;;10.53;;
37529;SDS011;23374;52.758;6.872;2023-10-19T13:37:37;19.03;;;10.30;;
37529;SDS011;23374;52.758;6.872;2023-10-19T13:39:58;17.87;;;10.07;;
37529;SDS011;23374;52.758;6.872;2023-10-19T13:42:18;17.70;;;9.27;;
37529;SDS011;23374;52.758;6.872;2023-10-19T13:44:38;19.37;;;9.23;;
37529;SDS011;23374;52.758;6.872;2023-10-19T13:46:58;16.73;;;9.30;;
37529;SDS011;23374;52.758;6.872;2023-10-19T13:49:19;17.67;;;9.97;;
37529;SDS011;23374;52.758;6.872;2023-10-19T13:51:43;16.10;;;8.73;;
37529;SDS011;23374;52.758;6.872;2023-10-19T13:54:03;18.10;;;10.23;;
37529;SDS011;23374;52.758;6.872;2023-10-19T13:56:25;23.03;;;11.03;;
37529;SDS011;23374;52.758;6.872;2023-10-19T13:58:46;21.37;;;11.63;;
37529;SDS011;23374;52.758;6.872;2023-10-19T14:01:08;18.97;;;9.23;;
37529;SDS011;23374;52.758;6.872;2023-10-19T14:03:29;16.87;;;10.33;;
37529;SDS011;23374;52.758;6.872;2023-10-19T14:05:50;17.77;;;10.07;;
37529;SDS011;23374;52.758;6.872;2023-10-19T14:08:13;20.23;;;10.93;;
37529;SDS011;23374;52.758;6.872;2023-10-19T14:10:35;18.97;;;9.80;;
37529;SDS011;23374;52.758;6.872;2023-10-19T14:12:56;18.27;;;10.03;;
37529;SDS011;23374;52.758;6.872;2023-10-19T14:15:18;16.50;;;9.63;;
37529;SDS011;23374;52.758;6.872;2023-10-19T14:17:39;17.20;;;9.50;;
37529;SDS011;23374;52.758;6.872;2023-10-19T14:20:00;16.60;;;9.03;;
37529;SDS011;23374;52.758;6.872;2023-10-19T14:22:21;14.43;;;9.20;;
37529;SDS011;23374;52.758;6.872;2023-10-19T14:24:41;17.77;;;10.17;;